sensor_id;sensor_type;location;lat;lon;timestamp;P1;durP1;ratioP1;P2;durP2;ratioP2
40609;SDS011;26316;55.976;37.140;2023-05-10T00:02:09;9.68;;;4.72;;
40609;SDS011;26316;55.976;37.140;2023-05-10T00:04:34;6.65;;;4.07;;
40609;SDS011;26316;55.976;37.140;2023-05-10T00:07:00;6.75;;;4.00;;
40609;SDS011;26316;55.976;37.140;2023-05-10T00:09:26;4.28;;;3.65;;
40609;SDS011;26316;55.976;37.140;2023-05-10T00:11:52;8.73;;;4.03;;
40609;SDS011;26316;55.976;37.140;2023-05-10T00:14:18;6.15;;;3.72;;
40609;SDS011;26316;55.976;37.140;2023-05-10T00:16:44;3.63;;;3.33;;
40609;SDS011;26316;55.976;37.140;2023-05-10T00:19:09;3.95;;;3.50;;
40609;SDS011;26316;55.976;37.140;2023-05-10T00:21:35;5.35;;;3.42;;
40609;SDS011;26316;55.976;37.140;2023-05-10T00:24:01;3.85;;;3.28;;
40609;SDS011;26316;55.976;37.140;2023-05-10T00:26:27;4.72;;;2.85;;
40609;SDS011;26316;55.976;37.140;2023-05-10T00:28:54;3.30;;;2.58;;
40609;SDS011;26316;55.976;37.140;2023-05-10T00:31:20;3.35;;;2.72;;
40609;SDS011;26316;55.976;37.140;2023-05-10T00:33:46;5.25;;;2.53;;
40609;SDS011;26316;55.976;37.140;2023-05-10T00:36:12;4.85;;;3.03;;
40609;SDS011;26316;55.976;37.140;2023-05-10T00:38:37;6.47;;;3.30;;
40609;SDS011;26316;55.976;37.140;2023-05-10T00:41:03;4.40;;;2.70;;
40609;SDS011;26316;55.976;37.140;2023-05-10T00:43:32;4.03;;;3.13;;
40609;SDS011;26316;55.976;37.140;2023-05-10T00:45:58;5.97;;;3.60;;
40609;SDS011;26316;55.976;37.140;2023-05-10T00:48:24;9.60;;;4.63;;
40609;SDS011;26316;55.976;37.140;2023-05-10T00:50:49;8.63;;;3.60;;
40609;SDS011;26316;55.976;37.140;2023-05-10T00:53:15;7.55;;;4.38;;
40609;SDS011;26316;55.976;37.140;2023-05-10T00:55:43;6.65;;;3.90;;
40609;SDS011;26316;55.976;37.140;2023-05-10T00:58:09;5.28;;;4.00;;
40609;SDS011;26316;55.976;37.140;2023-05-10T01:00:35;5.75;;;4.03;;
40609;SDS011;26316;55.976;37.140;2023-05-10T01:03:00;5.03;;;3.75;;
40609;SDS011;26316;55.976;37.140;2023-05-10T01:05:26;7.00;;;4.50;;
40609;SDS011;26316;55.976;37.140;2023-05-10T01:07:52;5.88;;;3.70;;
40609;SDS011;26316;55.976;37.140;2023-05-10T01:10:18;4.97;;;3.90;;
40609;SDS011;26316;55.976;37.140;2023-05-10T01:12:46;4.28;;;3.17;;
40609;SDS011;26316;55.976;37.140;2023-05-10T01:15:14;4.38;;;3.08;;
40609;SDS011;26316;55.976;37.140;2023-05-10T01:17:41;5.78;;;4.05;;
40609;SDS011;26316;55.976;37.140;2023-05-10T01:20:08;7.50;;;3.42;;
40609;SDS011;26316;55.976;37.140;2023-05-10T01:25:58;6.50;;;3.20;;
40609;SDS011;26316;55.976;37.140;2023-05-10T01:34:12;4.45;;;2.97;;
40609;SDS011;26316;55.976;37.140;2023-05-10T01:36:48;7.07;;;2.95;;
40609;SDS011;26316;55.976;37.140;2023-05-10T01:39:32;3.30;;;2.70;;
40609;SDS011;26316;55.976;37.140;2023-05-10T01:42:03;3.80;;;2.38;;
40609;SDS011;26316;55.976;37.140;2023-05-10T01:47:33;2.92;;;2.58;;
40609;SDS011;26316;55.976;37.140;2023-05-10T01:50:03;3.55;;;2.40;;
40609;SDS011;26316;55.976;37.140;2023-05-10T01:52:32;2.50;;;2.30;;
40609;SDS011;26316;55.976;37.140;2023-05-10T01:55:02;4.70;;;2.78;;
40609;SDS011;26316;55.976;37.140;2023-05-10T01:57:32;4.78;;;2.63;;
40609;SDS011;26316;55.976;37.140;2023-05-10T01:59:59;3.10;;;2.60;;
40609;SDS011;26316;55.976;37.140;2023-05-10T02:02:42;2.97;;;2.67;;
40609;SDS011;26316;55.976;37.140;2023-05-10T02:05:11;2.90;;;2.63;;
40609;SDS011;26316;55.976;37.140;2023-05-10T02:07:39;3.15;;;2.58;;
40609;SDS011;26316;55.976;37.140;2023-05-10T02:10:06;5.28;;;2.58;;
40609;SDS011;26316;55.976;37.140;2023-05-10T02:12:37;3.60;;;2.47;;
40609;SDS011;26316;55.976;37.140;2023-05-10T02:15:05;3.85;;;3.08;;
40609;SDS011;26316;55.976;37.140;2023-05-10T02:17:32;6.60;;;2.90;;
40609;SDS011;26316;55.976;37.140;2023-05-10T02:20:01;4.50;;;2.75;;
40609;SDS011;26316;55.976;37.140;2023-05-10T02:22:29;4.83;;;3.00;;
40609;SDS011;26316;55.976;37.140;2023-05-10T02:24:55;6.95;;;3.63;;
40609;SDS011;26316;55.976;37.140;2023-05-10T02:27:23;9.50;;;4.07;;
40609;SDS011;26316;55.976;37.140;2023-05-10T02:29:49;23.88;;;4.63;;
40609;SDS011;26316;55.976;37.140;2023-05-10T02:32:16;11.93;;;4.10;;
40609;SDS011;26316;55.976;37.140;2023-05-10T02:34:41;9.20;;;3.83;;
40609;SDS011;26316;55.976;37.140;2023-05-10T02:37:07;11.88;;;4.45;;
40609;SDS011;26316;55.976;37.140;2023-05-10T02:39:33;7.03;;;3.90;;
40609;SDS011;26316;55.976;37.140;2023-05-10T02:41:59;9.90;;;4.45;;
40609;SDS011;26316;55.976;37.140;2023-05-10T02:44:27;10.45;;;4.68;;
40609;SDS011;26316;55.976;37.140;2023-05-10T02:46:54;5.13;;;4.55;;
40609;SDS011;26316;55.976;37.140;2023-05-10T02:49:21;6.85;;;4.07;;
40609;SDS011;26316;55.976;37.140;2023-05-10T02:51:48;8.23;;;3.83;;
40609;SDS011;26316;55.976;37.140;2023-05-10T02:54:20;6.38;;;4.10;;
40609;SDS011;26316;55.976;37.140;2023-05-10T02:56:54;4.10;;;3.63;;
40609;SDS011;26316;55.976;37.140;2023-05-10T02:59:23;4.30;;;3.22;;
40609;SDS011;26316;55.976;37.140;2023-05-10T03:01:48;4.97;;;3.80;;
40609;SDS011;26316;55.976;37.140;2023-05-10T03:04:14;5.30;;;3.05;;
40609;SDS011;26316;55.976;37.140;2023-05-10T03:06:40;3.03;;;2.72;;
40609;SDS011;26316;55.976;37.140;2023-05-10T03:09:06;5.82;;;3.50;;
40609;SDS011;26316;55.976;37.140;2023-05-10T03:20:10;3.90;;;3.30;;
40609;SDS011;26316;55.976;37.140;2023-05-10T03:22:26;4.18;;;2.80;;
40609;SDS011;26316;55.976;37.140;2023-05-10T03:24:56;4.25;;;2.92;;
40609;SDS011;26316;55.976;37.140;2023-05-10T03:27:25;4.30;;;3.08;;
40609;SDS011;26316;55.976;37.140;2023-05-10T03:29:52;4.82;;;2.90;;
40609;SDS011;26316;55.976;37.140;2023-05-10T03:32:19;4.53;;;2.80;;
40609;SDS011;26316;55.976;37.140;2023-05-10T03:34:44;4.63;;;3.13;;
40609;SDS011;26316;55.976;37.140;2023-05-10T03:37:10;7.30;;;3.55;;
40609;SDS011;26316;55.976;37.140;2023-05-10T03:39:36;5.63;;;3.40;;
40609;SDS011;26316;55.976;37.140;2023-05-10T03:42:04;4.95;;;3.40;;
40609;SDS011;26316;55.976;37.140;2023-05-10T03:44:30;6.72;;;3.33;;
40609;SDS011;26316;55.976;37.140;2023-05-10T03:46:58;4.80;;;3.60;;
40609;SDS011;26316;55.976;37.140;2023-05-10T03:49:25;5.20;;;3.88;;
40609;SDS011;26316;55.976;37.140;2023-05-10T03:51:50;4.93;;;3.90;;
40609;SDS011;26316;55.976;37.140;2023-05-10T03:54:16;6.25;;;3.70;;
40609;SDS011;26316;55.976;37.140;2023-05-10T03:56:42;4.85;;;4.30;;
40609;SDS011;26316;55.976;37.140;2023-05-10T03:59:08;3.55;;;3.20;;
40609;SDS011;26316;55.976;37.140;2023-05-10T04:01:34;4.53;;;3.30;;
40609;SDS011;26316;55.976;37.140;2023-05-10T04:04:00;4.60;;;3.45;;
40609;SDS011;26316;55.976;37.140;2023-05-10T04:06:26;3.65;;;3.35;;
40609;SDS011;26316;55.976;37.140;2023-05-10T04:08:51;5.32;;;3.20;;
40609;SDS011;26316;55.976;37.140;2023-05-10T04:11:17;3.45;;;2.92;;
40609;SDS011;26316;55.976;37.140;2023-05-10T04:13:43;6.13;;;3.38;;
40609;SDS011;26316;55.976;37.140;2023-05-10T04:16:08;5.97;;;3.88;;
40609;SDS011;26316;55.976;37.140;2023-05-10T04:18:34;4.50;;;3.17;;
40609;SDS011;26316;55.976;37.140;2023-05-10T04:21:00;5.70;;;3.40;;
40609;SDS011;26316;55.976;37.140;2023-05-10T04:23:29;7.15;;;3.25;;
40609;SDS011;26316;55.976;37.140;2023-05-10T04:26:01;4.38;;;3.08;;
40609;SDS011;26316;55.976;37.140;2023-05-10T04:28:28;4.13;;;3.28;;
40609;SDS011;26316;55.976;37.140;2023-05-10T04:31:00;8.93;;;5.00;;
40609;SDS011;26316;55.976;37.140;2023-05-10T04:33:29;7.80;;;3.95;;
40609;SDS011;26316;55.976;37.140;2023-05-10T04:35:54;9.90;;;3.75;;
40609;SDS011;26316;55.976;37.140;2023-05-10T04:38:20;6.57;;;4.00;;
40609;SDS011;26316;55.976;37.140;2023-05-10T04:40:46;4.88;;;3.40;;
40609;SDS011;26316;55.976;37.140;2023-05-10T04:43:11;5.20;;;3.67;;
40609;SDS011;26316;55.976;37.140;2023-05-10T04:45:37;3.70;;;3.22;;
40609;SDS011;26316;55.976;37.140;2023-05-10T04:48:03;8.07;;;3.80;;
40609;SDS011;26316;55.976;37.140;2023-05-10T04:50:29;6.20;;;3.83;;
40609;SDS011;26316;55.976;37.140;2023-05-10T04:52:55;7.80;;;3.50;;
40609;SDS011;26316;55.976;37.140;2023-05-10T04:55:21;6.57;;;3.50;;
40609;SDS011;26316;55.976;37.140;2023-05-10T04:57:47;8.30;;;4.20;;
40609;SDS011;26316;55.976;37.140;2023-05-10T05:00:12;7.18;;;3.95;;
40609;SDS011;26316;55.976;37.140;2023-05-10T05:02:41;7.97;;;4.15;;
40609;SDS011;26316;55.976;37.140;2023-05-10T05:05:08;4.50;;;3.55;;
40609;SDS011;26316;55.976;37.140;2023-05-10T05:07:34;7.10;;;3.80;;
40609;SDS011;26316;55.976;37.140;2023-05-10T05:10:00;5.22;;;3.88;;
40609;SDS011;26316;55.976;37.140;2023-05-10T05:12:26;10.85;;;4.18;;
40609;SDS011;26316;55.976;37.140;2023-05-10T05:14:51;4.65;;;3.55;;
40609;SDS011;26316;55.976;37.140;2023-05-10T05:17:17;8.68;;;4.18;;
40609;SDS011;26316;55.976;37.140;2023-05-10T05:19:43;6.90;;;3.83;;
40609;SDS011;26316;55.976;37.140;2023-05-10T05:22:08;7.47;;;3.20;;
40609;SDS011;26316;55.976;37.140;2023-05-10T05:24:34;3.78;;;3.03;;
40609;SDS011;26316;55.976;37.140;2023-05-10T05:27:01;5.25;;;3.78;;
40609;SDS011;26316;55.976;37.140;2023-05-10T05:29:27;5.10;;;2.97;;
40609;SDS011;26316;55.976;37.140;2023-05-10T05:31:53;5.60;;;3.25;;
40609;SDS011;26316;55.976;37.140;2023-05-10T05:34:18;10.35;;;3.28;;
40609;SDS011;26316;55.976;37.140;2023-05-10T05:36:45;4.13;;;3.45;;
40609;SDS011;26316;55.976;37.140;2023-05-10T05:39:11;7.90;;;3.30;;
40609;SDS011;26316;55.976;37.140;2023-05-10T05:41:37;6.30;;;3.20;;
40609;SDS011;26316;55.976;37.140;2023-05-10T05:44:02;3.47;;;2.72;;
40609;SDS011;26316;55.976;37.140;2023-05-10T05:46:28;6.03;;;3.33;;
40609;SDS011;26316;55.976;37.140;2023-05-10T05:48:54;3.78;;;2.78;;
40609;SDS011;26316;55.976;37.140;2023-05-10T05:51:20;7.10;;;3.08;;
40609;SDS011;26316;55.976;37.140;2023-05-10T05:53:45;6.63;;;2.97;;
40609;SDS011;26316;55.976;37.140;2023-05-10T05:56:11;4.68;;;2.67;;
40609;SDS011;26316;55.976;37.140;2023-05-10T05:58:37;6.47;;;3.17;;
40609;SDS011;26316;55.976;37.140;2023-05-10T06:01:02;6.53;;;2.60;;
40609;SDS011;26316;55.976;37.140;2023-05-10T06:03:28;4.57;;;2.85;;
40609;SDS011;26316;55.976;37.140;2023-05-10T06:05:54;5.97;;;3.08;;
40609;SDS011;26316;55.976;37.140;2023-05-10T06:08:19;6.03;;;2.85;;
40609;SDS011;26316;55.976;37.140;2023-05-10T06:10:45;3.78;;;2.80;;
40609;SDS011;26316;55.976;37.140;2023-05-10T06:13:11;10.55;;;2.95;;
40609;SDS011;26316;55.976;37.140;2023-05-10T06:15:37;5.95;;;3.15;;
40609;SDS011;26316;55.976;37.140;2023-05-10T06:18:03;13.63;;;3.53;;
40609;SDS011;26316;55.976;37.140;2023-05-10T06:20:29;7.28;;;2.90;;
40609;SDS011;26316;55.976;37.140;2023-05-10T06:22:56;4.25;;;2.80;;
40609;SDS011;26316;55.976;37.140;2023-05-10T06:25:23;8.18;;;3.05;;
40609;SDS011;26316;55.976;37.140;2023-05-10T06:27:49;4.95;;;3.20;;
40609;SDS011;26316;55.976;37.140;2023-05-10T06:30:15;5.70;;;3.05;;
40609;SDS011;26316;55.976;37.140;2023-05-10T06:32:41;4.82;;;2.85;;
40609;SDS011;26316;55.976;37.140;2023-05-10T06:35:06;3.70;;;2.88;;
40609;SDS011;26316;55.976;37.140;2023-05-10T06:37:33;3.08;;;2.72;;
40609;SDS011;26316;55.976;37.140;2023-05-10T06:39:59;5.68;;;2.80;;
40609;SDS011;26316;55.976;37.140;2023-05-10T06:42:26;5.40;;;3.22;;
40609;SDS011;26316;55.976;37.140;2023-05-10T06:44:52;3.55;;;2.88;;
40609;SDS011;26316;55.976;37.140;2023-05-10T06:47:18;5.13;;;3.20;;
40609;SDS011;26316;55.976;37.140;2023-05-10T06:49:44;4.70;;;3.03;;
40609;SDS011;26316;55.976;37.140;2023-05-10T06:52:09;5.13;;;3.25;;
40609;SDS011;26316;55.976;37.140;2023-05-10T06:54:35;6.38;;;3.13;;
40609;SDS011;26316;55.976;37.140;2023-05-10T06:57:01;5.18;;;3.53;;
40609;SDS011;26316;55.976;37.140;2023-05-10T06:59:28;4.60;;;2.83;;
40609;SDS011;26316;55.976;37.140;2023-05-10T07:01:54;6.20;;;2.85;;
40609;SDS011;26316;55.976;37.140;2023-05-10T07:04:19;5.03;;;2.78;;
40609;SDS011;26316;55.976;37.140;2023-05-10T07:06:45;3.55;;;2.80;;
40609;SDS011;26316;55.976;37.140;2023-05-10T07:09:11;5.00;;;2.65;;
40609;SDS011;26316;55.976;37.140;2023-05-10T07:11:38;9.18;;;3.25;;
40609;SDS011;26316;55.976;37.140;2023-05-10T07:14:04;3.42;;;2.50;;
40609;SDS011;26316;55.976;37.140;2023-05-10T07:16:30;5.45;;;3.28;;
40609;SDS011;26316;55.976;37.140;2023-05-10T07:18:56;2.97;;;2.50;;
40609;SDS011;26316;55.976;37.140;2023-05-10T07:21:21;3.25;;;2.58;;
40609;SDS011;26316;55.976;37.140;2023-05-10T07:23:49;3.65;;;2.88;;
40609;SDS011;26316;55.976;37.140;2023-05-10T07:26:15;5.63;;;2.45;;
40609;SDS011;26316;55.976;37.140;2023-05-10T07:28:41;3.80;;;2.13;;
40609;SDS011;26316;55.976;37.140;2023-05-10T07:31:07;3.22;;;2.40;;
40609;SDS011;26316;55.976;37.140;2023-05-10T07:33:33;4.60;;;2.00;;
40609;SDS011;26316;55.976;37.140;2023-05-10T07:35:59;2.30;;;1.98;;
40609;SDS011;26316;55.976;37.140;2023-05-10T07:38:24;3.22;;;2.30;;
40609;SDS011;26316;55.976;37.140;2023-05-10T07:40:50;6.80;;;2.65;;
40609;SDS011;26316;55.976;37.140;2023-05-10T07:43:16;2.30;;;2.10;;
40609;SDS011;26316;55.976;37.140;2023-05-10T07:45:41;3.20;;;2.22;;
40609;SDS011;26316;55.976;37.140;2023-05-10T07:48:07;2.45;;;2.10;;
40609;SDS011;26316;55.976;37.140;2023-05-10T07:50:33;3.92;;;2.50;;
40609;SDS011;26316;55.976;37.140;2023-05-10T07:52:59;3.80;;;2.00;;
40609;SDS011;26316;55.976;37.140;2023-05-10T07:55:24;4.28;;;2.05;;
40609;SDS011;26316;55.976;37.140;2023-05-10T07:57:50;3.83;;;2.10;;
40609;SDS011;26316;55.976;37.140;2023-05-10T08:00:17;4.25;;;2.50;;
40609;SDS011;26316;55.976;37.140;2023-05-10T08:02:43;1.80;;;1.70;;
40609;SDS011;26316;55.976;37.140;2023-05-10T08:05:09;2.63;;;1.98;;
40609;SDS011;26316;55.976;37.140;2023-05-10T08:07:36;2.60;;;1.80;;
40609;SDS011;26316;55.976;37.140;2023-05-10T08:10:02;3.88;;;1.70;;
40609;SDS011;26316;55.976;37.140;2023-05-10T08:12:31;2.30;;;1.90;;
40609;SDS011;26316;55.976;37.140;2023-05-10T08:14:57;2.13;;;1.63;;
40609;SDS011;26316;55.976;37.140;2023-05-10T08:17:23;2.00;;;1.73;;
40609;SDS011;26316;55.976;37.140;2023-05-10T08:19:49;2.13;;;1.92;;
40609;SDS011;26316;55.976;37.140;2023-05-10T08:22:14;2.42;;;1.52;;
40609;SDS011;26316;55.976;37.140;2023-05-10T08:24:40;4.63;;;2.10;;
40609;SDS011;26316;55.976;37.140;2023-05-10T08:27:07;2.95;;;1.50;;
40609;SDS011;26316;55.976;37.140;2023-05-10T08:29:34;3.47;;;1.88;;
40609;SDS011;26316;55.976;37.140;2023-05-10T08:31:59;4.30;;;1.83;;
40609;SDS011;26316;55.976;37.140;2023-05-10T08:34:26;2.63;;;1.67;;
40609;SDS011;26316;55.976;37.140;2023-05-10T08:36:52;3.33;;;2.00;;
40609;SDS011;26316;55.976;37.140;2023-05-10T08:39:18;2.05;;;1.48;;
40609;SDS011;26316;55.976;37.140;2023-05-10T08:41:44;2.40;;;1.67;;
40609;SDS011;26316;55.976;37.140;2023-05-10T08:44:10;4.47;;;1.50;;
40609;SDS011;26316;55.976;37.140;2023-05-10T08:46:36;3.35;;;1.88;;
40609;SDS011;26316;55.976;37.140;2023-05-10T08:49:06;3.03;;;1.85;;
40609;SDS011;26316;55.976;37.140;2023-05-10T08:51:34;5.78;;;2.00;;
40609;SDS011;26316;55.976;37.140;2023-05-10T08:54:05;2.80;;;2.13;;
40609;SDS011;26316;55.976;37.140;2023-05-10T08:56:31;2.03;;;1.40;;
40609;SDS011;26316;55.976;37.140;2023-05-10T08:58:57;2.92;;;1.60;;
40609;SDS011;26316;55.976;37.140;2023-05-10T09:01:22;3.40;;;2.20;;
40609;SDS011;26316;55.976;37.140;2023-05-10T09:03:48;1.98;;;1.70;;
40609;SDS011;26316;55.976;37.140;2023-05-10T09:06:14;5.15;;;1.80;;
40609;SDS011;26316;55.976;37.140;2023-05-10T09:08:43;2.88;;;1.77;;
40609;SDS011;26316;55.976;37.140;2023-05-10T09:11:10;2.55;;;1.67;;
40609;SDS011;26316;55.976;37.140;2023-05-10T09:13:37;6.28;;;1.60;;
40609;SDS011;26316;55.976;37.140;2023-05-10T09:16:03;2.95;;;1.50;;
40609;SDS011;26316;55.976;37.140;2023-05-10T09:18:29;3.47;;;1.77;;
40609;SDS011;26316;55.976;37.140;2023-05-10T09:20:55;6.82;;;1.98;;
40609;SDS011;26316;55.976;37.140;2023-05-10T09:23:21;5.25;;;2.05;;
40609;SDS011;26316;55.976;37.140;2023-05-10T09:25:46;2.58;;;1.45;;
40609;SDS011;26316;55.976;37.140;2023-05-10T09:28:12;2.30;;;1.65;;
40609;SDS011;26316;55.976;37.140;2023-05-10T09:30:38;4.72;;;1.58;;
40609;SDS011;26316;55.976;37.140;2023-05-10T09:33:04;1.73;;;1.52;;
40609;SDS011;26316;55.976;37.140;2023-05-10T09:35:32;3.95;;;1.60;;
40609;SDS011;26316;55.976;37.140;2023-05-10T09:38:00;4.60;;;1.55;;
40609;SDS011;26316;55.976;37.140;2023-05-10T09:40:28;3.63;;;1.50;;
40609;SDS011;26316;55.976;37.140;2023-05-10T09:45:28;2.35;;;2.08;;
40609;SDS011;26316;55.976;37.140;2023-05-10T09:47:56;1.42;;;1.30;;
40609;SDS011;26316;55.976;37.140;2023-05-10T09:50:22;2.38;;;1.48;;
40609;SDS011;26316;55.976;37.140;2023-05-10T09:52:58;2.20;;;1.60;;
40609;SDS011;26316;55.976;37.140;2023-05-10T09:55:38;2.05;;;1.80;;
40609;SDS011;26316;55.976;37.140;2023-05-10T09:58:06;2.72;;;1.70;;
40609;SDS011;26316;55.976;37.140;2023-05-10T10:00:36;2.77;;;1.83;;
40609;SDS011;26316;55.976;37.140;2023-05-10T10:03:03;3.95;;;1.70;;
40609;SDS011;26316;55.976;37.140;2023-05-10T10:07:56;3.47;;;1.92;;
40609;SDS011;26316;55.976;37.140;2023-05-10T10:10:23;3.25;;;1.75;;
40609;SDS011;26316;55.976;37.140;2023-05-10T10:12:50;5.80;;;2.10;;
40609;SDS011;26316;55.976;37.140;2023-05-10T10:15:16;3.80;;;1.48;;
40609;SDS011;26316;55.976;37.140;2023-05-10T10:17:42;5.60;;;1.70;;
40609;SDS011;26316;55.976;37.140;2023-05-10T10:20:08;5.90;;;1.75;;
40609;SDS011;26316;55.976;37.140;2023-05-10T10:22:34;2.40;;;1.40;;
40609;SDS011;26316;55.976;37.140;2023-05-10T10:25:02;1.98;;;1.63;;
40609;SDS011;26316;55.976;37.140;2023-05-10T10:32:58;4.47;;;1.63;;
40609;SDS011;26316;55.976;37.140;2023-05-10T10:35:25;5.75;;;1.75;;
40609;SDS011;26316;55.976;37.140;2023-05-10T10:37:51;2.85;;;1.40;;
40609;SDS011;26316;55.976;37.140;2023-05-10T10:42:51;3.50;;;1.52;;
40609;SDS011;26316;55.976;37.140;2023-05-10T10:45:18;3.10;;;1.80;;
40609;SDS011;26316;55.976;37.140;2023-05-10T10:47:45;4.18;;;1.80;;
40609;SDS011;26316;55.976;37.140;2023-05-10T10:50:11;6.20;;;1.80;;
40609;SDS011;26316;55.976;37.140;2023-05-10T10:52:42;2.88;;;2.20;;
40609;SDS011;26316;55.976;37.140;2023-05-10T10:55:08;2.08;;;1.85;;
40609;SDS011;26316;55.976;37.140;2023-05-10T10:57:48;2.47;;;1.77;;
40609;SDS011;26316;55.976;37.140;2023-05-10T11:00:27;5.13;;;1.50;;
40609;SDS011;26316;55.976;37.140;2023-05-10T11:05:39;4.63;;;1.80;;
40609;SDS011;26316;55.976;37.140;2023-05-10T11:10:35;4.93;;;1.80;;
40609;SDS011;26316;55.976;37.140;2023-05-10T11:13:01;3.95;;;1.95;;
40609;SDS011;26316;55.976;37.140;2023-05-10T11:15:29;3.08;;;1.88;;
40609;SDS011;26316;55.976;37.140;2023-05-10T11:17:57;2.95;;;1.83;;
40609;SDS011;26316;55.976;37.140;2023-05-10T11:20:23;5.88;;;1.60;;
40609;SDS011;26316;55.976;37.140;2023-05-10T11:23:00;3.42;;;1.70;;
40609;SDS011;26316;55.976;37.140;2023-05-10T11:25:40;5.25;;;1.67;;
40609;SDS011;26316;55.976;37.140;2023-05-10T11:28:10;6.72;;;1.95;;
40609;SDS011;26316;55.976;37.140;2023-05-10T11:30:37;8.75;;;2.05;;
40609;SDS011;26316;55.976;37.140;2023-05-10T11:33:04;4.25;;;1.92;;
40609;SDS011;26316;55.976;37.140;2023-05-10T11:35:30;4.25;;;1.70;;
40609;SDS011;26316;55.976;37.140;2023-05-10T11:37:56;3.17;;;1.92;;
40609;SDS011;26316;55.976;37.140;2023-05-10T11:40:22;5.68;;;1.70;;
40609;SDS011;26316;55.976;37.140;2023-05-10T11:42:50;4.32;;;2.00;;
40609;SDS011;26316;55.976;37.140;2023-05-10T11:45:16;3.97;;;1.70;;
40609;SDS011;26316;55.976;37.140;2023-05-10T11:47:41;4.63;;;1.90;;
40609;SDS011;26316;55.976;37.140;2023-05-10T11:50:09;3.38;;;1.40;;
40609;SDS011;26316;55.976;37.140;2023-05-10T11:52:36;6.70;;;2.17;;
40609;SDS011;26316;55.976;37.140;2023-05-10T11:55:05;2.88;;;1.70;;
40609;SDS011;26316;55.976;37.140;2023-05-10T11:57:31;5.90;;;2.13;;
40609;SDS011;26316;55.976;37.140;2023-05-10T11:59:57;4.20;;;2.00;;
40609;SDS011;26316;55.976;37.140;2023-05-10T12:02:23;2.83;;;1.90;;
40609;SDS011;26316;55.976;37.140;2023-05-10T12:04:49;2.83;;;1.60;;
40609;SDS011;26316;55.976;37.140;2023-05-10T12:07:16;4.28;;;2.03;;
40609;SDS011;26316;55.976;37.140;2023-05-10T12:09:48;2.00;;;1.80;;
40609;SDS011;26316;55.976;37.140;2023-05-10T12:12:37;2.80;;;1.70;;
40609;SDS011;26316;55.976;37.140;2023-05-10T12:15:20;5.32;;;1.98;;
40609;SDS011;26316;55.976;37.140;2023-05-10T12:17:47;2.95;;;1.80;;
40609;SDS011;26316;55.976;37.140;2023-05-10T12:20:17;5.75;;;1.67;;
40609;SDS011;26316;55.976;37.140;2023-05-10T12:22:50;2.47;;;2.10;;
40609;SDS011;26316;55.976;37.140;2023-05-10T12:25:17;5.00;;;1.55;;
40609;SDS011;26316;55.976;37.140;2023-05-10T12:28:03;2.78;;;2.00;;
40609;SDS011;26316;55.976;37.140;2023-05-10T12:30:30;5.18;;;2.03;;
40609;SDS011;26316;55.976;37.140;2023-05-10T12:33:01;6.85;;;2.45;;
40609;SDS011;26316;55.976;37.140;2023-05-10T12:35:30;7.82;;;2.25;;
40609;SDS011;26316;55.976;37.140;2023-05-10T12:37:56;10.88;;;2.40;;
40609;SDS011;26316;55.976;37.140;2023-05-10T12:40:22;4.47;;;2.33;;
40609;SDS011;26316;55.976;37.140;2023-05-10T12:42:47;5.00;;;2.58;;
40609;SDS011;26316;55.976;37.140;2023-05-10T12:45:14;3.50;;;2.38;;
40609;SDS011;26316;55.976;37.140;2023-05-10T12:47:40;6.60;;;2.00;;
40609;SDS011;26316;55.976;37.140;2023-05-10T12:50:05;5.97;;;2.45;;
40609;SDS011;26316;55.976;37.140;2023-05-10T12:52:32;2.42;;;2.15;;
40609;SDS011;26316;55.976;37.140;2023-05-10T12:54:58;4.43;;;1.85;;
40609;SDS011;26316;55.976;37.140;2023-05-10T12:57:25;3.13;;;2.08;;
40609;SDS011;26316;55.976;37.140;2023-05-10T12:59:52;4.20;;;1.98;;
40609;SDS011;26316;55.976;37.140;2023-05-10T13:02:17;3.90;;;2.22;;
40609;SDS011;26316;55.976;37.140;2023-05-10T13:04:44;4.68;;;2.00;;
40609;SDS011;26316;55.976;37.140;2023-05-10T13:07:10;5.38;;;2.15;;
40609;SDS011;26316;55.976;37.140;2023-05-10T13:09:36;5.57;;;2.30;;
40609;SDS011;26316;55.976;37.140;2023-05-10T13:12:02;2.90;;;1.98;;
40609;SDS011;26316;55.976;37.140;2023-05-10T13:14:28;5.72;;;2.00;;
40609;SDS011;26316;55.976;37.140;2023-05-10T13:16:54;3.65;;;2.20;;
40609;SDS011;26316;55.976;37.140;2023-05-10T13:19:20;4.60;;;1.90;;
40609;SDS011;26316;55.976;37.140;2023-05-10T13:21:46;5.22;;;2.10;;
40609;SDS011;26316;55.976;37.140;2023-05-10T13:24:12;4.13;;;1.73;;
40609;SDS011;26316;55.976;37.140;2023-05-10T13:26:42;6.80;;;2.20;;
40609;SDS011;26316;55.976;37.140;2023-05-10T13:29:08;3.58;;;1.77;;
40609;SDS011;26316;55.976;37.140;2023-05-10T13:31:35;5.05;;;2.15;;
40609;SDS011;26316;55.976;37.140;2023-05-10T13:34:01;2.92;;;1.88;;
40609;SDS011;26316;55.976;37.140;2023-05-10T13:36:28;4.95;;;1.60;;
40609;SDS011;26316;55.976;37.140;2023-05-10T13:38:54;2.85;;;2.20;;
40609;SDS011;26316;55.976;37.140;2023-05-10T13:41:19;2.92;;;2.10;;
40609;SDS011;26316;55.976;37.140;2023-05-10T13:43:46;5.07;;;2.35;;
40609;SDS011;26316;55.976;37.140;2023-05-10T13:46:13;2.75;;;2.10;;
40609;SDS011;26316;55.976;37.140;2023-05-10T13:48:39;4.45;;;2.40;;
40609;SDS011;26316;55.976;37.140;2023-05-10T13:51:05;7.40;;;2.47;;
40609;SDS011;26316;55.976;37.140;2023-05-10T13:53:31;6.75;;;2.55;;
40609;SDS011;26316;55.976;37.140;2023-05-10T13:59:06;4.13;;;2.25;;
40609;SDS011;26316;55.976;37.140;2023-05-10T14:01:33;6.00;;;2.25;;
40609;SDS011;26316;55.976;37.140;2023-05-10T14:03:59;6.22;;;2.58;;
40609;SDS011;26316;55.976;37.140;2023-05-10T14:06:25;4.95;;;2.50;;
40609;SDS011;26316;55.976;37.140;2023-05-10T14:08:52;4.50;;;2.67;;
40609;SDS011;26316;55.976;37.140;2023-05-10T14:11:19;11.07;;;3.53;;
40609;SDS011;26316;55.976;37.140;2023-05-10T14:13:45;6.03;;;2.55;;
40609;SDS011;26316;55.976;37.140;2023-05-10T14:16:11;11.13;;;3.00;;
40609;SDS011;26316;55.976;37.140;2023-05-10T14:18:37;6.55;;;2.72;;
40609;SDS011;26316;55.976;37.140;2023-05-10T14:21:03;5.03;;;2.55;;
40609;SDS011;26316;55.976;37.140;2023-05-10T14:23:29;6.68;;;2.63;;
40609;SDS011;26316;55.976;37.140;2023-05-10T14:25:55;7.50;;;2.80;;
40609;SDS011;26316;55.976;37.140;2023-05-10T14:28:21;4.47;;;2.85;;
40609;SDS011;26316;55.976;37.140;2023-05-10T14:30:48;4.53;;;2.22;;
40609;SDS011;26316;55.976;37.140;2023-05-10T14:33:14;5.70;;;2.28;;
40609;SDS011;26316;55.976;37.140;2023-05-10T14:35:41;12.27;;;2.60;;
40609;SDS011;26316;55.976;37.140;2023-05-10T14:38:07;5.38;;;2.42;;
40609;SDS011;26316;55.976;37.140;2023-05-10T14:40:32;6.50;;;2.60;;
40609;SDS011;26316;55.976;37.140;2023-05-10T14:42:58;9.57;;;2.50;;
40609;SDS011;26316;55.976;37.140;2023-05-10T14:45:24;6.45;;;2.45;;
40609;SDS011;26316;55.976;37.140;2023-05-10T14:47:50;5.22;;;2.55;;
40609;SDS011;26316;55.976;37.140;2023-05-10T14:50:16;8.95;;;2.58;;
40609;SDS011;26316;55.976;37.140;2023-05-10T14:55:59;4.78;;;2.10;;
40609;SDS011;26316;55.976;37.140;2023-05-10T14:58:26;8.60;;;3.00;;
40609;SDS011;26316;55.976;37.140;2023-05-10T15:00:52;8.48;;;2.85;;
40609;SDS011;26316;55.976;37.140;2023-05-10T15:03:18;9.88;;;3.50;;
40609;SDS011;26316;55.976;37.140;2023-05-10T15:05:44;8.60;;;4.07;;
40609;SDS011;26316;55.976;37.140;2023-05-10T15:08:10;7.55;;;3.20;;
40609;SDS011;26316;55.976;37.140;2023-05-10T15:10:38;10.38;;;3.30;;
40609;SDS011;26316;55.976;37.140;2023-05-10T15:13:04;14.18;;;5.00;;
40609;SDS011;26316;55.976;37.140;2023-05-10T15:15:30;111.97;;;90.63;;
40609;SDS011;26316;55.976;37.140;2023-05-10T15:17:56;101.97;;;84.00;;